createdAt,value
2023-03-03T00:00:37.865Z,20.65
2023-03-03T00:03:07.869Z,22.20
2023-03-03T00:05:35.435Z,22.33
2023-03-03T00:08:02.962Z,22.13
2023-03-03T00:10:29.980Z,20.52
2023-03-03T00:12:56.790Z,24.85
2023-03-03T00:15:25.548Z,22.75
2023-03-03T00:17:53.269Z,20.50
2023-03-03T00:20:29.289Z,27.05
2023-03-03T00:25:30.450Z,25.05
2023-03-03T00:28:22.448Z,21.70
2023-03-03T00:30:50.275Z,24.30
2023-03-03T00:33:29.793Z,22.23
2023-03-03T00:35:57.590Z,20.23
2023-03-03T00:38:24.501Z,23.25
2023-03-03T00:40:51.367Z,19.38
2023-03-03T00:43:19.748Z,22.83
2023-03-03T00:45:51.630Z,19.52
2023-03-03T00:48:25.563Z,20.85
2023-03-03T00:51:00.596Z,20.08
2023-03-03T00:53:29.881Z,20.75
2023-03-03T00:55:57.665Z,19.20
2023-03-03T00:58:25.285Z,21.77
2023-03-03T01:00:54.027Z,22.85
2023-03-03T01:03:24.759Z,19.63
2023-03-03T01:05:52.799Z,19.65
2023-03-03T01:08:20.643Z,18.58
2023-03-03T01:10:54.316Z,20.20
2023-03-03T01:13:23.780Z,18.05
2023-03-03T01:15:51.219Z,18.08
2023-03-03T01:18:18.088Z,16.05
2023-03-03T01:20:44.848Z,21.35
2023-03-03T01:23:11.844Z,17.25
2023-03-03T01:25:39.157Z,20.55
2023-03-03T01:28:06.042Z,20.65
2023-03-03T01:30:32.863Z,19.48
2023-03-03T01:32:59.821Z,17.98
2023-03-03T01:35:27.302Z,17.83
2023-03-03T01:37:54.083Z,16.67
2023-03-03T01:40:27.176Z,18.20
2023-03-03T01:42:54.063Z,16.50
2023-03-03T01:45:28.979Z,18.55
2023-03-03T01:48:09.727Z,20.63
2023-03-03T01:50:44.205Z,25.38
2023-03-03T01:53:28.462Z,30.90
2023-03-03T01:55:55.384Z,26.63
2023-03-03T01:58:30.981Z,27.00
2023-03-03T02:01:09.413Z,24.08
2023-03-03T02:03:36.381Z,24.95
2023-03-03T02:06:12.088Z,27.60
2023-03-03T02:09:04.086Z,25.73
2023-03-03T02:11:34.712Z,27.58
2023-03-03T02:14:01.539Z,26.35
2023-03-03T02:16:28.904Z,22.90
2023-03-03T02:18:55.780Z,27.45
2023-03-03T02:21:26.646Z,25.77
2023-03-03T02:23:53.414Z,21.30
2023-03-03T02:26:31.936Z,16.58
2023-03-03T02:28:58.899Z,17.70
2023-03-03T02:31:28.683Z,16.75
2023-03-03T02:33:56.220Z,19.15
2023-03-03T02:36:25.597Z,16.17
2023-03-03T02:39:18.412Z,18.95
2023-03-03T02:41:49.028Z,16.73
2023-03-03T02:44:21.302Z,14.93
2023-03-03T02:46:50.225Z,18.00
2023-03-03T02:49:21.112Z,19.73
2023-03-03T02:51:48.185Z,18.70
2023-03-03T02:54:16.555Z,19.80
2023-03-03T02:56:43.910Z,20.65
2023-03-03T02:59:11.271Z,21.50
2023-03-03T03:01:38.071Z,16.40
2023-03-03T03:04:16.565Z,16.02
2023-03-03T03:06:44.637Z,15.07
2023-03-03T03:09:13.609Z,18.35
2023-03-03T03:11:41.454Z,16.67
2023-03-03T03:14:09.953Z,16.98
2023-03-03T03:16:37.367Z,21.25
2023-03-03T03:19:05.215Z,16.73
2023-03-03T03:21:33.018Z,18.35
2023-03-03T03:24:00.413Z,19.48
2023-03-03T03:26:27.448Z,19.92
2023-03-03T03:28:54.304Z,18.00
2023-03-03T03:31:22.029Z,18.55
2023-03-03T03:33:51.729Z,14.43
2023-03-03T03:36:18.703Z,19.48
2023-03-03T03:38:45.484Z,19.60
2023-03-03T03:41:13.900Z,16.02
2023-03-03T03:43:41.108Z,16.52
2023-03-03T03:46:08.388Z,15.55
2023-03-03T03:48:35.431Z,16.83
2023-03-03T03:51:02.295Z,16.27
2023-03-03T03:53:29.259Z,17.05
2023-03-03T03:55:56.552Z,14.32
2023-03-03T03:58:23.364Z,15.75
2023-03-03T04:00:50.446Z,18.40
2023-03-03T04:03:17.396Z,15.18
2023-03-03T04:05:44.273Z,17.30
2023-03-03T04:08:11.726Z,19.65
2023-03-03T04:10:38.753Z,18.77
2023-03-03T04:13:05.667Z,21.05
2023-03-03T04:15:32.593Z,16.67
2023-03-03T04:17:59.412Z,20.05
2023-03-03T04:20:26.163Z,17.58
2023-03-03T04:22:53.256Z,29.83
2023-03-03T04:25:20.451Z,20.20
2023-03-03T04:27:47.324Z,16.63
2023-03-03T04:30:15.707Z,17.77
2023-03-03T04:32:42.739Z,16.17
2023-03-03T04:35:10.084Z,21.13
2023-03-03T04:37:38.814Z,21.30
2023-03-03T04:40:07.293Z,20.05
2023-03-03T04:42:34.320Z,21.90
2023-03-03T04:45:01.154Z,19.38
2023-03-03T04:47:28.237Z,19.63
2023-03-03T04:49:55.015Z,19.60
2023-03-03T04:52:21.915Z,22.15
2023-03-03T04:54:48.672Z,25.73
2023-03-03T04:57:15.502Z,26.77
2023-03-03T04:59:42.350Z,26.88
2023-03-03T05:02:09.198Z,33.80
2023-03-03T05:04:36.491Z,28.38
2023-03-03T05:07:03.401Z,25.48
2023-03-03T05:09:30.418Z,28.73
2023-03-03T05:11:57.194Z,26.60
2023-03-03T05:14:23.990Z,26.95
2023-03-03T05:16:50.784Z,25.45
2023-03-03T05:19:17.775Z,26.88
2023-03-03T05:21:44.565Z,27.08
2023-03-03T05:24:13.589Z,26.00
2023-03-03T05:26:40.780Z,26.58
2023-03-03T05:29:08.821Z,25.20
2023-03-03T05:31:36.091Z,25.23
2023-03-03T05:34:03.004Z,25.33
2023-03-03T05:36:29.994Z,25.55
2023-03-03T05:38:56.796Z,22.77
2023-03-03T05:41:24.015Z,21.55
2023-03-03T05:43:51.007Z,21.08
2023-03-03T05:46:18.060Z,20.85
2023-03-03T05:48:45.372Z,22.48
2023-03-03T05:51:12.312Z,20.20
2023-03-03T05:53:39.440Z,24.13
2023-03-03T05:56:06.621Z,21.45
2023-03-03T05:58:33.419Z,19.92
2023-03-03T06:01:00.306Z,24.63
2023-03-03T06:03:27.081Z,19.70
2023-03-03T06:05:54.038Z,18.95
2023-03-03T06:08:20.909Z,20.08
2023-03-03T06:10:47.937Z,21.33
2023-03-03T06:13:14.807Z,23.13
2023-03-03T06:15:41.759Z,22.13
2023-03-03T06:18:09.124Z,23.48
2023-03-03T06:20:36.717Z,21.42
2023-03-03T06:23:03.722Z,24.25
2023-03-03T06:25:30.577Z,23.70
2023-03-03T06:27:57.916Z,25.05
2023-03-03T06:30:24.718Z,20.65
2023-03-03T06:32:51.433Z,20.83
2023-03-03T06:35:18.461Z,25.27
2023-03-03T06:37:45.294Z,26.35
2023-03-03T06:40:12.553Z,19.67
2023-03-03T06:42:39.319Z,20.85
2023-03-03T06:45:06.437Z,20.33
2023-03-03T06:47:34.005Z,27.10
2023-03-03T06:50:00.940Z,26.05
2023-03-03T06:52:27.781Z,25.30
2023-03-03T06:54:58.024Z,24.33
2023-03-03T06:57:29.655Z,23.27
2023-03-03T07:00:18.483Z,31.48
2023-03-03T07:02:45.432Z,32.45
2023-03-03T07:05:18.005Z,30.73
2023-03-03T07:07:45.044Z,26.65
2023-03-03T07:10:25.608Z,25.05
2023-03-03T07:12:52.776Z,27.00
2023-03-03T07:15:36.028Z,24.52
2023-03-03T07:18:04.643Z,25.08
2023-03-03T07:20:39.533Z,25.50
2023-03-03T07:23:23.306Z,23.02
2023-03-03T07:25:51.013Z,26.13
2023-03-03T07:28:27.076Z,26.67
2023-03-03T07:33:29.177Z,26.83
2023-03-03T07:35:58.828Z,21.52
2023-03-03T07:38:39.280Z,18.15
2023-03-03T07:41:17.176Z,22.58
2023-03-03T07:43:58.444Z,26.80
2023-03-03T07:46:34.568Z,26.38
2023-03-03T07:49:02.296Z,31.83
2023-03-03T07:51:43.513Z,24.45
2023-03-03T07:54:35.246Z,21.95
2023-03-03T07:57:20.623Z,21.33
2023-03-03T08:00:14.751Z,28.25
2023-03-03T08:03:00.555Z,25.17
2023-03-03T08:05:44.328Z,25.02
2023-03-03T08:08:29.427Z,30.45
2023-03-03T08:11:01.520Z,36.30
2023-03-03T08:13:32.949Z,36.47
2023-03-03T08:16:02.078Z,29.60
2023-03-03T08:18:36.408Z,24.90
2023-03-03T08:21:22.234Z,25.52
2023-03-03T08:23:51.631Z,27.45
2023-03-03T08:26:19.312Z,23.45
2023-03-03T08:28:47.494Z,20.65
2023-03-03T08:31:24.908Z,21.38
2023-03-03T08:33:58.824Z,19.33
2023-03-03T08:36:25.700Z,21.60
2023-03-03T08:38:52.450Z,20.73
2023-03-03T08:41:19.234Z,20.63
2023-03-03T08:43:45.972Z,29.95
2023-03-03T08:46:12.881Z,27.50
2023-03-03T08:48:39.868Z,19.75
2023-03-03T08:51:07.170Z,17.02
2023-03-03T08:53:36.596Z,18.10
2023-03-03T08:56:04.831Z,22.65
2023-03-03T08:58:35.687Z,18.73
2023-03-03T09:01:03.813Z,19.70
2023-03-03T09:03:30.951Z,20.50
2023-03-03T09:05:57.748Z,20.95
2023-03-03T09:08:24.664Z,19.40
2023-03-03T09:10:51.477Z,14.55
2023-03-03T09:13:20.277Z,15.50
2023-03-03T09:15:49.037Z,16.92
2023-03-03T09:18:26.121Z,16.27
2023-03-03T09:20:57.378Z,13.38
2023-03-03T09:23:24.371Z,16.48
2023-03-03T09:25:52.698Z,13.40
2023-03-03T09:28:29.658Z,13.38
2023-03-03T09:31:07.415Z,11.73
2023-03-03T09:33:49.755Z,11.45
2023-03-03T09:36:34.961Z,15.00
2023-03-03T09:39:25.237Z,26.77
2023-03-03T09:42:13.501Z,28.10
2023-03-03T09:44:53.784Z,21.02
2023-03-03T09:47:52.235Z,17.75
2023-03-03T09:50:28.048Z,15.13
2023-03-03T09:53:13.470Z,12.93
2023-03-03T09:56:08.095Z,14.93
2023-03-03T09:58:54.352Z,13.43
2023-03-03T10:01:42.171Z,13.90
2023-03-03T10:04:25.109Z,10.65
2023-03-03T10:07:19.164Z,12.02
2023-03-03T10:10:04.816Z,15.25
2023-03-03T10:12:41.844Z,14.70
2023-03-03T10:15:28.212Z,13.63
2023-03-03T10:18:35.496Z,10.85
2023-03-03T10:21:07.770Z,10.55
2023-03-03T10:23:54.537Z,10.80
2023-03-03T10:26:43.454Z,11.30
2023-03-03T10:29:34.131Z,10.18
2023-03-03T10:32:23.610Z,14.85
2023-03-03T10:35:08.484Z,10.32
2023-03-03T10:38:01.215Z,12.15
2023-03-03T10:40:49.974Z,11.88
2023-03-03T10:43:36.722Z,13.00
2023-03-03T10:46:19.831Z,13.13
2023-03-03T10:49:11.659Z,9.70
2023-03-03T10:52:13.482Z,12.15
2023-03-03T10:54:53.355Z,14.85
2023-03-03T10:57:24.936Z,12.52
2023-03-03T11:00:05.710Z,15.32
2023-03-03T11:03:05.790Z,11.23
2023-03-03T11:05:56.174Z,8.20
2023-03-03T11:08:30.004Z,10.45
2023-03-03T11:11:32.870Z,8.65
2023-03-03T11:14:07.009Z,13.05
2023-03-03T11:16:54.108Z,13.45
2023-03-03T11:19:35.833Z,8.73
2023-03-03T11:22:11.769Z,13.15
2023-03-03T11:27:27.228Z,8.98
2023-03-03T11:30:35.787Z,9.77
2023-03-03T11:33:05.209Z,8.48
2023-03-03T11:35:31.917Z,10.45
2023-03-03T11:38:24.057Z,10.35
2023-03-03T11:41:04.932Z,11.48
2023-03-03T11:43:41.697Z,7.72
2023-03-03T11:46:14.274Z,8.23
2023-03-03T11:49:07.066Z,10.88
2023-03-03T11:52:06.097Z,8.15
2023-03-03T11:54:36.101Z,5.47
2023-03-03T11:57:19.268Z,6.00
2023-03-03T11:59:56.527Z,5.10
2023-03-03T12:02:30.427Z,7.45
2023-03-03T12:05:11.066Z,4.93
2023-03-03T12:08:03.935Z,4.85
2023-03-03T12:10:56.575Z,10.30
2023-03-03T12:13:43.172Z,10.00
2023-03-03T12:16:19.660Z,6.93
2023-03-03T12:19:11.558Z,7.85
2023-03-03T12:21:53.610Z,5.57
2023-03-03T12:24:45.155Z,9.50
2023-03-03T12:27:17.799Z,6.57
2023-03-03T12:29:59.556Z,7.40
2023-03-03T12:33:03.598Z,5.22
2023-03-03T12:36:09.845Z,8.73
2023-03-03T12:38:58.015Z,5.50
2023-03-03T12:41:35.706Z,6.57
2023-03-03T12:44:24.069Z,12.27
2023-03-03T12:47:03.457Z,5.28
2023-03-03T12:50:06.514Z,9.30
2023-03-03T12:52:36.767Z,8.05
2023-03-03T12:55:38.831Z,7.43
2023-03-03T12:58:40.718Z,5.95
2023-03-03T13:01:39.957Z,9.40
2023-03-03T13:04:35.093Z,5.72
2023-03-03T13:07:14.028Z,6.00
2023-03-03T13:10:22.730Z,7.78
2023-03-03T13:13:14.801Z,9.48
2023-03-03T13:15:59.618Z,10.43
2023-03-03T13:18:57.629Z,9.68
2023-03-03T13:21:33.585Z,12.05
2023-03-03T13:26:49.356Z,8.48
2023-03-03T13:29:40.521Z,10.02
2023-03-03T13:32:32.118Z,10.23
2023-03-03T13:35:09.219Z,8.68
2023-03-03T13:37:43.317Z,8.35
2023-03-03T13:40:20.772Z,8.43
2023-03-03T13:43:16.734Z,10.98
2023-03-03T13:45:49.455Z,8.57
2023-03-03T13:48:27.142Z,8.07
2023-03-03T13:51:09.102Z,11.65
2023-03-03T13:54:16.680Z,10.65
2023-03-03T13:57:27.774Z,16.27
2023-03-03T13:59:57.549Z,12.98
2023-03-03T14:02:42.460Z,16.65
2023-03-03T14:05:31.237Z,17.35
2023-03-03T14:08:09.556Z,15.55
2023-03-03T14:11:02.931Z,17.25
2023-03-03T14:13:57.688Z,23.00
2023-03-03T14:16:43.924Z,19.80
2023-03-03T14:19:36.860Z,20.90
2023-03-03T14:22:23.568Z,18.30
2023-03-03T14:25:02.663Z,23.20
2023-03-03T14:28:03.196Z,23.55
2023-03-03T14:30:41.131Z,25.73
2023-03-03T14:33:07.966Z,20.77
2023-03-03T14:35:56.454Z,22.50
2023-03-03T14:38:45.267Z,23.88
2023-03-03T14:41:12.205Z,20.50
2023-03-03T14:43:42.111Z,19.50
2023-03-03T14:46:27.256Z,22.52
2023-03-03T14:48:57.390Z,24.25
2023-03-03T14:51:49.813Z,23.05
2023-03-03T14:54:40.255Z,21.38
2023-03-03T14:57:10.761Z,21.02
2023-03-03T14:59:37.652Z,17.92
2023-03-03T15:02:16.256Z,20.35
2023-03-03T15:04:47.564Z,19.73
2023-03-03T15:07:26.146Z,19.17
2023-03-03T15:09:52.890Z,19.17
2023-03-03T15:12:39.808Z,19.23
2023-03-03T15:15:07.002Z,20.02
2023-03-03T15:17:37.002Z,20.30
2023-03-03T15:20:06.356Z,17.02
2023-03-03T15:22:46.462Z,19.88
2023-03-03T15:25:41.909Z,19.42
2023-03-03T15:28:22.634Z,21.90
2023-03-03T15:31:21.566Z,16.35
2023-03-03T15:34:25.471Z,20.70
2023-03-03T15:37:08.962Z,17.02
2023-03-03T15:40:03.960Z,16.67
2023-03-03T15:42:35.747Z,22.17
2023-03-03T15:45:29.005Z,13.85
2023-03-03T15:48:01.577Z,18.08
2023-03-03T15:50:48.454Z,13.88
2023-03-03T15:53:22.554Z,14.38
2023-03-03T15:56:12.172Z,17.85
2023-03-03T15:58:48.384Z,13.90
2023-03-03T16:01:29.803Z,13.48
2023-03-03T16:04:13.134Z,18.23
2023-03-03T16:06:45.648Z,14.70
2023-03-03T16:09:39.901Z,15.40
2023-03-03T16:12:18.800Z,16.20
2023-03-03T16:15:15.232Z,11.77
2023-03-03T16:18:15.757Z,13.00
2023-03-03T16:21:01.123Z,17.10
2023-03-03T16:23:31.761Z,17.27
2023-03-03T16:26:05.121Z,13.48
2023-03-03T16:28:56.005Z,13.90
2023-03-03T16:31:35.332Z,13.15
2023-03-03T16:34:40.066Z,14.07
2023-03-03T16:37:28.682Z,13.27
2023-03-03T16:40:09.362Z,14.27
2023-03-03T16:42:36.323Z,13.23
2023-03-03T16:45:15.560Z,13.80
2023-03-03T16:47:57.591Z,14.25
2023-03-03T16:50:38.954Z,15.82
2023-03-03T16:53:27.519Z,12.23
2023-03-03T16:56:07.080Z,12.50
2023-03-03T16:58:36.584Z,16.23
2023-03-03T17:01:39.028Z,11.77
2023-03-03T17:04:31.470Z,13.27
2023-03-03T17:07:07.405Z,14.80
2023-03-03T17:10:04.739Z,13.65
2023-03-03T17:12:34.618Z,12.57
2023-03-03T17:15:19.592Z,12.93
2023-03-03T17:18:04.752Z,13.93
2023-03-03T17:20:46.444Z,15.43
2023-03-03T17:23:16.025Z,14.23
2023-03-03T17:25:58.172Z,12.98
2023-03-03T17:28:46.239Z,14.68
2023-03-03T17:31:12.992Z,14.85
2023-03-03T17:34:16.140Z,20.70
2023-03-03T17:36:57.810Z,16.92
2023-03-03T17:39:48.495Z,22.25
2023-03-03T17:42:44.710Z,20.08
2023-03-03T17:45:14.603Z,23.40
2023-03-03T17:47:47.217Z,19.50
2023-03-03T17:50:42.433Z,22.45
2023-03-03T17:53:41.068Z,24.95
2023-03-03T17:56:31.963Z,22.67
2023-03-03T17:59:35.978Z,25.80
2023-03-03T18:02:36.754Z,21.58
2023-03-03T18:05:31.376Z,22.55
2023-03-03T18:08:19.947Z,27.90
2023-03-03T18:11:12.853Z,25.40
2023-03-03T18:14:03.814Z,27.58
2023-03-03T18:16:47.393Z,29.10
2023-03-03T18:19:35.691Z,25.90
2023-03-03T18:22:05.532Z,28.95
2023-03-03T18:24:39.458Z,31.25
2023-03-03T18:27:24.177Z,31.88
2023-03-03T18:30:15.923Z,30.58
2023-03-03T18:33:08.818Z,31.90
2023-03-03T18:35:46.250Z,32.90
2023-03-03T18:38:16.021Z,28.42
2023-03-03T18:40:56.648Z,36.05
2023-03-03T18:43:49.991Z,37.95
2023-03-03T18:46:23.042Z,33.53
2023-03-03T18:49:01.442Z,31.23
2023-03-03T18:51:34.461Z,33.35
2023-03-03T18:54:14.174Z,33.33
2023-03-03T18:56:49.732Z,29.70
2023-03-03T18:59:34.228Z,35.58
2023-03-03T19:02:13.253Z,43.45
2023-03-03T19:04:55.419Z,36.97
2023-03-03T19:07:41.253Z,34.05
2023-03-03T19:10:33.987Z,43.47
2023-03-03T19:13:00.994Z,34.40
2023-03-03T19:15:31.100Z,38.47
2023-03-03T19:18:03.692Z,35.42
2023-03-03T19:20:44.082Z,35.72
2023-03-03T19:23:47.515Z,38.67
2023-03-03T19:26:26.573Z,36.67
2023-03-03T19:29:12.300Z,37.90
2023-03-03T19:31:55.953Z,36.83
2023-03-03T19:34:28.942Z,42.15
2023-03-03T19:37:23.770Z,39.20
2023-03-03T19:40:01.117Z,30.40
2023-03-03T19:42:46.378Z,35.58
2023-03-03T19:45:19.330Z,38.13
2023-03-03T19:48:11.579Z,37.20
2023-03-03T19:51:02.252Z,42.28
2023-03-03T19:54:07.861Z,37.90
2023-03-03T19:56:46.918Z,37.35
2023-03-03T19:59:20.781Z,37.92
2023-03-03T20:02:02.488Z,34.22
2023-03-03T20:04:57.377Z,36.47
2023-03-03T20:07:43.685Z,36.22
2023-03-03T20:10:16.528Z,32.85
2023-03-03T20:13:08.214Z,37.47
2023-03-03T20:15:56.620Z,37.28
2023-03-03T20:18:51.423Z,36.85
2023-03-03T20:21:49.065Z,39.42
2023-03-03T20:24:46.170Z,37.75
2023-03-03T20:27:24.366Z,35.45
2023-03-03T20:30:14.303Z,41.63
2023-03-03T20:32:46.681Z,34.70
2023-03-03T20:35:36.528Z,35.67
2023-03-03T20:38:25.976Z,36.47
2023-03-03T20:41:17.086Z,33.67
2023-03-03T20:44:02.921Z,36.00
2023-03-03T20:46:47.077Z,36.03
2023-03-03T20:49:34.460Z,31.60
2023-03-03T20:52:23.459Z,33.38
2023-03-03T20:54:56.556Z,30.38
2023-03-03T20:57:34.492Z,29.98
2023-03-03T21:00:08.182Z,36.00
2023-03-03T21:02:40.897Z,40.50
2023-03-03T21:05:09.664Z,31.15
2023-03-03T21:07:37.638Z,28.55
2023-03-03T21:10:12.607Z,34.00
2023-03-03T21:12:39.414Z,32.90
2023-03-03T21:15:26.018Z,27.88
2023-03-03T21:17:54.916Z,28.38
2023-03-03T21:20:39.980Z,29.55
2023-03-03T21:23:10.374Z,29.80
2023-03-03T21:25:46.288Z,30.20
2023-03-03T21:28:35.948Z,31.73
2023-03-03T21:31:11.866Z,28.55
2023-03-03T21:33:42.695Z,32.20
2023-03-03T21:36:14.827Z,28.48
2023-03-03T21:38:41.872Z,27.63
2023-03-03T21:41:09.340Z,28.75
2023-03-03T21:44:22.357Z,31.77
2023-03-03T21:46:49.416Z,27.02
2023-03-03T21:49:16.171Z,29.55
2023-03-03T21:51:42.922Z,30.77
2023-03-03T21:54:09.638Z,30.98
2023-03-03T21:56:38.032Z,31.05
2023-03-03T21:59:04.808Z,31.02
2023-03-03T22:01:31.619Z,29.17
2023-03-03T22:03:58.397Z,26.75
2023-03-03T22:06:25.143Z,29.67
2023-03-03T22:08:51.986Z,29.52
2023-03-03T22:11:18.711Z,29.63
2023-03-03T22:13:45.434Z,28.02
2023-03-03T22:16:12.818Z,26.92
2023-03-03T22:18:39.653Z,28.40
2023-03-03T22:21:06.584Z,30.55
2023-03-03T22:23:33.532Z,31.27
2023-03-03T22:26:02.158Z,27.40
2023-03-03T22:28:29.505Z,32.15
2023-03-03T22:30:56.914Z,33.70
2023-03-03T22:33:23.744Z,30.50
2023-03-03T22:35:50.598Z,29.58
2023-03-03T22:38:17.579Z,29.40
2023-03-03T22:40:44.399Z,27.90
2023-03-03T22:43:11.161Z,29.52
2023-03-03T22:45:38.023Z,28.52
2023-03-03T22:48:04.914Z,30.20
2023-03-03T22:50:31.790Z,30.13
2023-03-03T22:52:58.581Z,32.25
2023-03-03T22:55:25.356Z,28.88
2023-03-03T22:57:52.103Z,30.40
2023-03-03T23:00:19.418Z,28.67
2023-03-03T23:02:46.237Z,35.05
2023-03-03T23:05:13.037Z,34.70
2023-03-03T23:07:41.002Z,27.88
2023-03-03T23:10:08.721Z,27.38
2023-03-03T23:12:35.794Z,31.30
2023-03-03T23:15:04.442Z,31.65
2023-03-03T23:17:31.321Z,32.17
2023-03-03T23:19:58.113Z,28.55
2023-03-03T23:22:24.892Z,29.40
2023-03-03T23:24:51.634Z,29.15
2023-03-03T23:27:18.621Z,26.63
2023-03-03T23:29:45.389Z,32.80
2023-03-03T23:32:12.183Z,29.70
2023-03-03T23:34:38.966Z,31.98
2023-03-03T23:37:05.682Z,33.85
2023-03-03T23:39:32.432Z,32.92
2023-03-03T23:41:59.221Z,26.92
2023-03-03T23:44:26.010Z,29.50
2023-03-03T23:46:52.931Z,31.27
2023-03-03T23:49:19.716Z,28.45
2023-03-03T23:51:46.626Z,27.55
2023-03-03T23:54:13.614Z,31.27
2023-03-03T23:56:40.454Z,31.50
2023-03-03T23:59:07.202Z,31.90
